createdAt,value
2022-08-05T00:04:37.749Z,100058.75
2022-08-05T00:10:41.757Z,100052.66
2022-08-05T00:16:52.908Z,100052.91
2022-08-05T00:22:59.590Z,100054.56
2022-08-05T00:29:04.019Z,100042.97
2022-08-05T00:35:07.576Z,100036.84
2022-08-05T00:41:11.633Z,100030.50
2022-08-05T00:47:16.357Z,100034.34
2022-08-05T00:54:01.242Z,100024.38
2022-08-05T00:59:44.245Z,100027.41
2022-08-05T01:05:45.956Z,100025.47
2022-08-05T01:11:49.000Z,100021.03
2022-08-05T01:17:53.513Z,100024.06
2022-08-05T01:23:55.983Z,100026.00
2022-08-05T01:29:58.227Z,100026.28
2022-08-05T01:35:59.750Z,100025.69
2022-08-05T01:42:01.209Z,100024.00
2022-08-05T01:48:03.298Z,100024.53
2022-08-05T01:54:11.876Z,100027.31
2022-08-05T02:00:19.497Z,100024.53
2022-08-05T02:06:36.928Z,100018.19
2022-08-05T02:12:39.575Z,100007.13
2022-08-05T02:18:42.076Z,100012.91
2022-08-05T02:24:43.636Z,100009.31
2022-08-05T02:30:54.761Z,100005.13
2022-08-05T02:36:58.062Z,100001.81
2022-08-05T02:42:59.556Z,100001.56
2022-08-05T02:49:01.075Z,100000.97
2022-08-05T02:55:05.177Z,100004.00
2022-08-05T03:01:07.954Z,100003.47
2022-08-05T03:07:40.530Z,100003.78
2022-08-05T03:13:51.532Z,100018.72
2022-08-05T03:19:55.800Z,100016.78
2022-08-05T03:26:04.598Z,100011.50
2022-08-05T03:32:21.603Z,100017.59
2022-08-05T03:38:33.191Z,100023.13
2022-08-05T03:44:38.779Z,100020.94
2022-08-05T03:50:40.752Z,100019.59
2022-08-05T03:56:46.943Z,100018.75
2022-08-05T04:02:57.807Z,100011.59
2022-08-05T04:09:00.394Z,100014.94
2022-08-05T04:15:01.877Z,100017.22
2022-08-05T04:21:05.341Z,100013.66
2022-08-05T04:27:07.271Z,100017.94
2022-08-05T04:33:09.126Z,100022.47
2022-08-05T04:39:11.099Z,100009.00
2022-08-05T04:45:22.892Z,100019.66
2022-08-05T04:51:32.883Z,100023.03
2022-08-05T04:57:37.206Z,100012.00
2022-08-05T05:03:42.225Z,100015.97
2022-08-05T05:09:44.382Z,100012.38
2022-08-05T05:15:56.141Z,100009.88
2022-08-05T05:22:22.978Z,100010.16
2022-08-05T05:28:22.452Z,100019.31
2022-08-05T05:34:27.318Z,100037.63
2022-08-05T05:40:28.931Z,100033.75
2022-08-05T05:46:31.650Z,100033.19
2022-08-05T05:52:37.923Z,100036.78
2022-08-05T05:58:42.176Z,100017.53
2022-08-05T06:04:44.106Z,100024.84
2022-08-05T06:10:52.877Z,100028.88
2022-08-05T06:16:54.880Z,100042.56
2022-08-05T06:22:58.435Z,100028.31
2022-08-05T06:29:00.228Z,100033.13
2022-08-05T06:35:05.925Z,100031.47
2022-08-05T06:41:16.950Z,100034.28
2022-08-05T06:48:11.867Z,100039.28
2022-08-05T06:53:40.322Z,100043.19
2022-08-05T06:59:42.325Z,100039.28
2022-08-05T07:05:57.037Z,100032.59
2022-08-05T07:12:00.530Z,100031.91
2022-08-05T07:18:09.774Z,100039.75
2022-08-05T07:24:13.788Z,100034.38
2022-08-05T07:30:24.083Z,100034.28
2022-08-05T07:36:33.781Z,100042.34
2022-08-05T07:42:36.328Z,100025.88
2022-08-05T07:49:03.953Z,100016.50
2022-08-05T07:55:00.072Z,100007.09
2022-08-05T08:01:01.712Z,100013.44
2022-08-05T08:07:07.951Z,100015.75
2022-08-05T08:13:09.773Z,100006.00
2022-08-05T08:19:37.956Z,100010.63
2022-08-05T08:26:00.260Z,100002.97
2022-08-05T08:31:56.988Z,99997.03
2022-08-05T08:37:58.987Z,99999.28
2022-08-05T08:45:22.151Z,99999.59
2022-08-05T08:50:32.784Z,99990.94
2022-08-05T08:56:47.605Z,99984.72
2022-08-05T09:02:51.361Z,99981.09
2022-08-05T09:08:53.300Z,99976.13
2022-08-05T09:14:58.635Z,99973.03
2022-08-05T09:21:11.506Z,99972.78
2022-08-05T09:27:13.409Z,99966.97
2022-08-05T09:33:35.660Z,99970.28
2022-08-05T09:39:41.550Z,99970.84
2022-08-05T09:46:07.735Z,99968.84
2022-08-05T09:52:09.715Z,99959.63
2022-08-05T09:58:13.034Z,99955.75
2022-08-05T10:04:16.150Z,99954.38
2022-08-05T10:10:28.058Z,99960.84
2022-08-05T10:16:30.750Z,99962.19
2022-08-05T10:22:34.987Z,99948.19
2022-08-05T10:28:39.796Z,99944.34
2022-08-05T10:34:43.877Z,99944.91
2022-08-05T10:40:46.387Z,99931.88
2022-08-05T10:46:50.767Z,99941.31
2022-08-05T10:53:00.141Z,99936.06
2022-08-05T10:59:12.129Z,99937.72
2022-08-05T11:05:14.428Z,99930.78
2022-08-05T11:11:20.226Z,99928.28
2022-08-05T11:17:59.038Z,99925.53
2022-08-05T11:24:02.879Z,99923.00
2022-08-05T11:30:05.614Z,99918.00
2022-08-05T11:36:11.885Z,99923.84
2022-08-05T11:42:18.568Z,99914.16
2022-08-05T11:48:21.560Z,99915.78
2022-08-05T11:54:33.779Z,99915.53
2022-08-05T12:00:38.539Z,99911.66
2022-08-05T12:06:40.698Z,99918.31
2022-08-05T12:12:59.388Z,99918.84
2022-08-05T12:19:01.697Z,99918.31
2022-08-05T12:25:03.836Z,99911.09
2022-08-05T12:31:06.269Z,99910.56
2022-08-05T12:37:16.227Z,99900.56
2022-08-05T12:43:23.237Z,99899.44
2022-08-05T12:49:25.593Z,99889.41
2022-08-05T12:55:28.404Z,99876.94
2022-08-05T13:02:01.592Z,99870.00
2022-08-05T13:07:57.809Z,99865.84
2022-08-05T13:14:05.790Z,99856.09
2022-08-05T13:20:09.066Z,99864.44
2022-08-05T13:26:13.064Z,99848.06
2022-08-05T13:32:15.249Z,99844.47
2022-08-05T13:38:36.125Z,99850.00
2022-08-05T13:44:44.611Z,99845.00
2022-08-05T13:50:47.116Z,99833.94
2022-08-05T13:56:51.582Z,99826.41
2022-08-05T14:02:53.409Z,99811.97
2022-08-05T14:08:54.965Z,99812.28
2022-08-05T14:15:01.098Z,99809.50
2022-08-05T14:21:23.822Z,99812.28
2022-08-05T14:27:47.472Z,99826.41
2022-08-05T14:33:59.287Z,99813.34
2022-08-05T14:40:03.154Z,99817.00
2022-08-05T14:46:05.913Z,99800.34
2022-08-05T14:52:10.121Z,99801.97
2022-08-05T14:58:14.198Z,99798.94
2022-08-05T15:04:16.006Z,99798.94
2022-08-05T15:10:17.884Z,99792.00
2022-08-05T15:16:30.841Z,99795.31
2022-08-05T15:22:33.983Z,99788.94
2022-08-05T15:28:35.800Z,99793.09
2022-08-05T15:34:44.452Z,99797.94
2022-08-05T15:41:21.235Z,99784.56
2022-08-05T15:47:07.346Z,99788.66
2022-08-05T15:53:09.611Z,99782.31
2022-08-05T15:59:21.720Z,99787.31
2022-08-05T16:05:23.591Z,99782.03
2022-08-05T16:11:42.884Z,99789.78
2022-08-05T16:17:47.594Z,99781.47
2022-08-05T16:24:01.637Z,99784.53
2022-08-05T16:30:04.899Z,99782.84
2022-08-05T16:36:07.135Z,99783.72
2022-08-05T16:42:14.382Z,99782.31
2022-08-05T16:48:25.006Z,99783.75
2022-08-05T16:54:32.912Z,99784.84
2022-08-05T17:00:37.903Z,99789.31
2022-08-05T17:06:41.984Z,99802.38
2022-08-05T17:12:51.883Z,99796.28
2022-08-05T17:18:53.925Z,99796.28
2022-08-05T17:24:57.449Z,99796.88
2022-08-05T17:30:59.800Z,99807.88
2022-08-05T17:37:27.358Z,99815.09
2022-08-05T17:43:53.026Z,99824.03
2022-08-05T17:50:04.016Z,99832.63
2022-08-05T17:56:06.715Z,99837.38
2022-08-05T18:02:09.915Z,99845.69
2022-08-05T18:08:12.441Z,99854.28
2022-08-05T18:14:20.642Z,99843.75
2022-08-05T18:20:29.513Z,99853.47
2022-08-05T18:26:33.622Z,99859.84
2022-08-05T18:32:35.159Z,99862.91
2022-08-05T18:38:40.697Z,99862.91
2022-08-05T18:44:51.791Z,99870.91
2022-08-05T18:52:05.398Z,99878.13
2022-08-05T18:57:43.650Z,99888.91
2022-08-05T19:03:55.429Z,99896.16
2022-08-05T19:09:58.213Z,99900.03
2022-08-05T19:16:03.843Z,99886.75
2022-08-05T19:22:05.458Z,99886.19
2022-08-05T19:28:06.895Z,99895.06
2022-08-05T19:34:08.776Z,99894.47
2022-08-05T19:40:10.755Z,99888.38
2022-08-05T19:46:16.812Z,99892.25
2022-08-05T19:52:32.490Z,99880.34
2022-08-05T19:58:53.344Z,99889.50
2022-08-05T20:04:59.000Z,99887.56
2022-08-05T20:11:01.205Z,99887.28
2022-08-05T20:17:06.588Z,99885.91
2022-08-05T20:23:08.512Z,99875.94
2022-08-05T20:29:27.670Z,99873.44
2022-08-05T20:35:29.389Z,99870.38
2022-08-05T20:41:44.308Z,99867.34
2022-08-05T20:47:46.824Z,99870.66
2022-08-05T20:53:56.296Z,99873.41
2022-08-05T21:00:19.891Z,99864.81
2022-08-05T21:06:28.570Z,99871.75
2022-08-05T21:12:31.277Z,99862.31
2022-08-05T21:18:34.821Z,99857.91
2022-08-05T21:24:37.418Z,99860.94
2022-08-05T21:30:39.159Z,99863.44
2022-08-05T21:36:42.601Z,99855.13
2022-08-05T21:42:48.551Z,99863.69
2022-08-05T21:48:53.609Z,99860.09
2022-08-05T21:55:06.418Z,99864.25
2022-08-05T22:01:08.695Z,99849.56
2022-08-05T22:07:12.381Z,99855.94
2022-08-05T22:14:19.360Z,99861.19
2022-08-05T22:19:57.534Z,99853.97
2022-08-05T22:26:15.776Z,99845.41
2022-08-05T22:32:17.731Z,99846.50
2022-08-05T22:38:19.762Z,99801.81
2022-08-05T22:44:21.323Z,99858.13
2022-08-05T22:50:26.767Z,99863.66
2022-08-05T22:56:30.103Z,99856.47
2022-08-05T23:02:32.713Z,99874.47
2022-08-05T23:08:34.425Z,99868.94
2022-08-05T23:14:37.594Z,99874.72
2022-08-05T23:20:39.188Z,99872.81
2022-08-05T23:26:41.252Z,99864.50
2022-08-05T23:32:45.647Z,99870.53
2022-08-05T23:38:47.102Z,99867.47
2022-08-05T23:44:54.483Z,99871.63
2022-08-05T23:50:56.092Z,99872.19
2022-08-05T23:57:03.722Z,99875.50
